Terminal Aerodrome Forecast
Issued by NWS Twin Cities, MN

Home | Current Version | Previous Version | Text Only | Print | Product List | Glossary Off
Versions: 1 2 3 4 5 6 7 8 9 10 11 12 13 14 15 16 17 18

778
FTUS43 KMPX 201139
TAFEAU
TAF
KEAU 201139Z 2012/2112 13009KT P6SM BKN050 OVC200
     FM201700 14011KT 6SM -SHRA BR VCTS SCT015 OVC025CB
      TEMPO 2018/2022 2SM SHRA BR OVC010
     FM202200 18011KT 4SM -RA BR OVC008
     FM210400 24010KT P6SM VCSH OVC012
     FM210700 27009KT P6SM SCT020=

USA.gov is the U.S. government's official web portal to all federal, state and local government web resources and services.